createdAt,value
2023-04-16T00:01:01.297Z,101231.84
2023-04-16T00:03:27.771Z,101234.66
2023-04-16T00:05:55.909Z,101227.84
2023-04-16T00:08:24.632Z,101237.59
2023-04-16T00:10:52.618Z,101230.56
2023-04-16T00:13:19.140Z,101229.94
2023-04-16T00:15:45.707Z,101232.84
2023-04-16T00:18:12.092Z,101233.66
2023-04-16T00:20:38.502Z,101229.25
2023-04-16T00:23:04.887Z,101227.50
2023-04-16T00:25:31.270Z,101231.41
2023-04-16T00:27:57.646Z,101237.34
2023-04-16T00:30:24.064Z,101228.38
2023-04-16T00:32:50.537Z,101227.03
2023-04-16T00:35:16.978Z,101226.31
2023-04-16T00:37:43.380Z,101232.00
2023-04-16T00:40:10.101Z,101227.19
2023-04-16T00:42:38.002Z,101228.09
2023-04-16T00:45:05.540Z,101227.81
2023-04-16T00:47:32.004Z,101225.78
2023-04-16T00:49:58.427Z,101237.19
2023-04-16T00:52:25.967Z,101230.25
2023-04-16T00:54:52.647Z,101237.22
2023-04-16T00:57:20.998Z,101231.22
2023-04-16T00:59:47.520Z,101241.50
2023-04-16T01:02:14.309Z,101239.91
2023-04-16T01:04:40.791Z,101237.59
2023-04-16T01:07:07.270Z,101241.34
2023-04-16T01:09:33.654Z,101234.91
2023-04-16T01:12:00.106Z,101241.84
2023-04-16T01:14:26.524Z,101240.44
2023-04-16T01:16:52.958Z,101241.63
2023-04-16T01:19:19.338Z,101240.91
2023-04-16T01:21:45.818Z,101249.59
2023-04-16T01:24:12.205Z,101242.75
2023-04-16T01:26:38.588Z,101250.13
2023-04-16T01:29:05.087Z,101237.56
2023-04-16T01:31:31.920Z,101242.81
2023-04-16T01:33:58.328Z,101249.63
2023-04-16T01:36:24.700Z,101248.75
2023-04-16T01:38:51.069Z,101259.34
2023-04-16T01:41:17.447Z,101253.19
2023-04-16T01:43:43.846Z,101261.56
2023-04-16T01:46:15.424Z,101259.69
2023-04-16T01:48:41.869Z,101252.06
2023-04-16T01:51:08.271Z,101255.00
2023-04-16T01:53:36.950Z,101258.81
2023-04-16T01:56:03.829Z,101263.97
2023-04-16T01:58:32.537Z,101268.72
2023-04-16T02:00:59.107Z,101270.22
2023-04-16T02:03:25.783Z,101276.97
2023-04-16T02:05:52.258Z,101271.31
2023-04-16T02:08:18.636Z,101270.53
2023-04-16T02:10:49.739Z,101270.63
2023-04-16T02:13:16.633Z,101268.31
2023-04-16T02:15:47.325Z,101260.63
2023-04-16T02:18:13.925Z,101263.47
2023-04-16T02:20:44.625Z,101271.38
2023-04-16T02:23:11.827Z,101273.97
2023-04-16T02:25:42.223Z,101267.34
2023-04-16T02:28:09.828Z,101267.41
2023-04-16T02:30:36.995Z,101268.44
2023-04-16T02:33:05.455Z,101268.78
2023-04-16T02:35:34.746Z,101269.38
2023-04-16T02:38:01.568Z,101263.88
2023-04-16T02:40:29.065Z,101260.53
2023-04-16T02:42:55.712Z,101262.25
2023-04-16T02:45:22.538Z,101262.81
2023-04-16T02:47:49.296Z,101258.78
2023-04-16T02:50:16.199Z,101261.88
2023-04-16T02:52:42.701Z,101261.38
2023-04-16T02:55:09.919Z,101255.88
2023-04-16T02:57:36.488Z,101255.88
2023-04-16T03:00:04.928Z,101253.31
2023-04-16T03:02:31.413Z,101257.50
2023-04-16T03:04:57.871Z,101251.22
2023-04-16T03:07:24.527Z,101253.31
2023-04-16T03:09:50.895Z,101247.56
2023-04-16T03:12:17.264Z,101246.69
2023-04-16T03:14:43.623Z,101256.63
2023-04-16T03:17:09.999Z,101251.75
2023-04-16T03:19:36.412Z,101251.13
2023-04-16T03:22:02.806Z,101255.09
2023-04-16T03:24:29.535Z,101254.25
2023-04-16T03:26:57.906Z,101254.59
2023-04-16T03:29:24.510Z,101255.66
2023-04-16T03:31:50.886Z,101255.44
2023-04-16T03:34:17.279Z,101259.34
2023-04-16T03:36:43.665Z,101259.97
2023-04-16T03:39:10.271Z,101262.34
2023-04-16T03:41:36.805Z,101254.19
2023-04-16T03:44:03.217Z,101271.16
2023-04-16T03:46:29.646Z,101264.38
2023-04-16T03:48:56.260Z,101272.63
2023-04-16T03:51:22.644Z,101272.66
2023-04-16T03:53:49.019Z,101271.03
2023-04-16T03:56:15.420Z,101274.75
2023-04-16T03:58:41.803Z,101269.81
2023-04-16T04:01:08.183Z,101268.41
2023-04-16T04:03:34.816Z,101264.25
2023-04-16T04:06:01.357Z,101261.66
2023-04-16T04:08:27.721Z,101269.38
2023-04-16T04:10:54.107Z,101261.88
2023-04-16T04:13:20.637Z,101264.19
2023-04-16T04:15:47.012Z,101267.44
2023-04-16T04:18:13.379Z,101263.44
2023-04-16T04:20:41.076Z,101266.84
2023-04-16T04:23:07.516Z,101271.31
2023-04-16T04:25:33.920Z,101275.97
2023-04-16T04:28:00.293Z,101272.28
2023-04-16T04:30:26.726Z,101272.75
2023-04-16T04:32:53.175Z,101279.91
2023-04-16T04:35:19.654Z,101283.09
2023-04-16T04:37:46.071Z,101283.91
2023-04-16T04:40:12.529Z,101291.66
2023-04-16T04:42:38.947Z,101285.00
2023-04-16T04:45:05.852Z,101289.56
2023-04-16T04:47:32.292Z,101286.81
2023-04-16T04:49:58.752Z,101282.53
2023-04-16T04:52:25.312Z,101287.56
2023-04-16T04:54:52.710Z,101287.97
2023-04-16T04:57:19.116Z,101294.47
2023-04-16T04:59:45.621Z,101311.44
2023-04-16T05:02:12.063Z,101296.44
2023-04-16T05:04:38.504Z,101307.81
2023-04-16T05:07:04.951Z,101303.25
2023-04-16T05:09:31.666Z,101303.41
2023-04-16T05:11:58.079Z,101304.88
2023-04-16T05:14:24.490Z,101313.91
2023-04-16T05:16:51.291Z,101314.00
2023-04-16T05:19:17.842Z,101315.53
2023-04-16T05:21:44.218Z,101321.69
2023-04-16T05:24:10.827Z,101320.69
2023-04-16T05:26:38.090Z,101324.91
2023-04-16T05:29:04.543Z,101318.47
2023-04-16T05:31:30.917Z,101322.53
2023-04-16T05:33:57.301Z,101320.56
2023-04-16T05:36:23.678Z,101316.72
2023-04-16T05:38:50.100Z,101320.31
2023-04-16T05:41:16.484Z,101329.38
2023-04-16T05:43:42.864Z,101323.97
2023-04-16T05:46:09.251Z,101332.59
2023-04-16T05:48:35.665Z,101333.31
2023-04-16T05:51:02.697Z,101339.59
2023-04-16T05:53:29.136Z,101348.22
2023-04-16T05:55:55.650Z,101346.38
2023-04-16T05:58:22.094Z,101343.38
2023-04-16T06:00:48.566Z,101349.91
2023-04-16T06:03:15.135Z,101346.00
2023-04-16T06:05:41.720Z,101355.22
2023-04-16T06:08:08.200Z,101356.69
2023-04-16T06:10:34.670Z,101357.47
2023-04-16T06:13:01.069Z,101358.69
2023-04-16T06:15:27.451Z,101354.25
2023-04-16T06:17:54.466Z,101357.66
2023-04-16T06:20:20.893Z,101355.34
2023-04-16T06:22:47.309Z,101361.22
2023-04-16T06:25:14.187Z,101362.97
2023-04-16T06:27:41.212Z,101373.13
2023-04-16T06:30:12.491Z,101362.97
2023-04-16T06:32:39.090Z,101356.34
2023-04-16T06:35:06.170Z,101359.44
2023-04-16T06:37:32.583Z,101359.25
2023-04-16T06:39:58.952Z,101364.16
2023-04-16T06:42:25.404Z,101371.06
2023-04-16T06:44:51.778Z,101376.47
2023-04-16T06:47:18.194Z,101378.81
2023-04-16T06:49:44.660Z,101373.25
2023-04-16T06:52:11.667Z,101372.13
2023-04-16T06:54:38.187Z,101374.06
2023-04-16T06:57:04.572Z,101362.78
2023-04-16T06:59:31.542Z,101378.16
2023-04-16T07:01:58.075Z,101383.34
2023-04-16T07:04:24.657Z,101381.06
2023-04-16T07:06:51.227Z,101377.47
2023-04-16T07:09:17.969Z,101382.91
2023-04-16T07:11:44.595Z,101388.31
2023-04-16T07:14:11.045Z,101389.44
2023-04-16T07:16:37.822Z,101396.94
2023-04-16T07:19:04.427Z,101396.28
2023-04-16T07:21:31.677Z,101398.31
2023-04-16T07:23:58.057Z,101400.25
2023-04-16T07:26:24.457Z,101395.88
2023-04-16T07:28:50.871Z,101396.25
2023-04-16T07:31:17.478Z,101407.94
2023-04-16T07:33:43.966Z,101408.56
2023-04-16T07:36:10.944Z,101400.25
2023-04-16T07:38:37.351Z,101398.97
2023-04-16T07:41:03.770Z,101408.06
2023-04-16T07:43:30.362Z,101407.59
2023-04-16T07:45:56.916Z,101409.78
2023-04-16T07:48:23.416Z,101410.31
2023-04-16T07:50:50.319Z,101410.06
2023-04-16T07:53:16.823Z,101402.13
2023-04-16T07:55:43.565Z,101408.06
2023-04-16T07:58:10.255Z,101416.00
2023-04-16T08:00:36.907Z,101416.00
2023-04-16T08:03:03.937Z,101422.00
2023-04-16T08:05:30.435Z,101425.00
2023-04-16T08:07:56.864Z,101425.31
2023-04-16T08:10:23.299Z,101429.34
2023-04-16T08:12:49.735Z,101429.06
2023-04-16T08:15:16.411Z,101432.06
2023-04-16T08:17:42.898Z,101439.13
2023-04-16T08:20:12.178Z,101434.47
2023-04-16T08:22:40.882Z,101445.50
2023-04-16T08:25:07.906Z,101448.75
2023-04-16T08:27:34.294Z,101454.28
2023-04-16T08:30:00.760Z,101460.09
2023-04-16T08:32:27.221Z,101457.19
2023-04-16T08:34:53.659Z,101463.19
2023-04-16T08:37:20.110Z,101465.56
2023-04-16T08:39:46.485Z,101459.31
2023-04-16T08:42:40.593Z,101468.41
2023-04-16T08:45:09.067Z,101463.25
2023-04-16T08:47:37.107Z,101465.97
2023-04-16T08:50:04.994Z,101472.22
2023-04-16T08:52:31.954Z,101473.41
2023-04-16T08:55:06.699Z,101475.66
2023-04-16T08:57:53.725Z,101464.31
2023-04-16T09:00:21.167Z,101463.44
2023-04-16T09:02:47.953Z,101469.94
2023-04-16T09:05:18.956Z,101471.59
2023-04-16T09:07:46.431Z,101481.03
2023-04-16T09:10:14.698Z,101475.63
2023-04-16T09:12:44.563Z,101480.69
2023-04-16T09:15:12.300Z,101481.59
2023-04-16T09:17:39.509Z,101477.28
2023-04-16T09:20:08.819Z,101477.97
2023-04-16T09:22:36.266Z,101482.34
2023-04-16T09:25:03.229Z,101480.00
2023-04-16T09:27:30.811Z,101483.03
2023-04-16T09:29:57.429Z,101487.91
2023-04-16T09:32:28.222Z,101485.88
2023-04-16T09:34:59.004Z,101488.06
2023-04-16T09:37:26.611Z,101491.06
2023-04-16T09:39:55.791Z,101492.50
2023-04-16T09:42:33.199Z,101499.56
2023-04-16T09:45:01.382Z,101501.03
2023-04-16T09:47:43.968Z,101498.16
2023-04-16T09:50:17.795Z,101495.84
2023-04-16T09:52:50.478Z,101495.47
2023-04-16T09:55:17.018Z,101494.41
2023-04-16T09:57:43.395Z,101502.91
2023-04-16T10:00:10.685Z,101494.00
2023-04-16T10:02:41.481Z,101490.28
2023-04-16T10:05:08.552Z,101497.78
2023-04-16T10:07:36.138Z,101497.31
2023-04-16T10:10:03.876Z,101501.34
2023-04-16T10:12:32.527Z,101499.97
2023-04-16T10:14:58.975Z,101504.19
2023-04-16T10:17:26.596Z,101494.91
2023-04-16T10:19:54.348Z,101506.94
2023-04-16T10:22:20.942Z,101505.50
2023-04-16T10:24:47.894Z,101506.50
2023-04-16T10:27:14.345Z,101507.03
2023-04-16T10:29:40.774Z,101496.78
2023-04-16T10:32:07.700Z,101511.09
2023-04-16T10:34:35.124Z,101504.41
2023-04-16T10:37:01.606Z,101515.50
2023-04-16T10:39:29.379Z,101507.69
2023-04-16T10:42:08.011Z,101504.03
2023-04-16T10:44:34.402Z,101507.03
2023-04-16T10:47:00.901Z,101499.13
2023-04-16T10:49:27.369Z,101495.22
2023-04-16T10:52:03.580Z,101498.13
2023-04-16T10:54:31.059Z,101489.59
2023-04-16T10:56:59.218Z,101494.47
2023-04-16T10:59:31.009Z,101493.25
2023-04-16T11:01:59.682Z,101482.91
2023-04-16T11:04:28.107Z,101494.94
2023-04-16T11:07:13.936Z,101482.69
2023-04-16T11:09:59.826Z,101494.16
2023-04-16T11:12:33.576Z,101488.53
2023-04-16T11:15:02.756Z,101484.94
2023-04-16T11:17:51.495Z,101483.06
2023-04-16T11:20:22.977Z,101472.97
2023-04-16T11:22:50.568Z,101485.47
2023-04-16T11:25:24.684Z,101480.28
2023-04-16T11:27:51.964Z,101484.09
2023-04-16T11:30:19.556Z,101483.13
2023-04-16T11:32:45.973Z,101481.09
2023-04-16T11:35:19.110Z,101484.25
2023-04-16T11:37:46.491Z,101485.19
2023-04-16T11:40:13.048Z,101483.94
2023-04-16T11:42:40.812Z,101485.91
2023-04-16T11:45:11.891Z,101486.16
2023-04-16T11:47:46.975Z,101488.72
2023-04-16T11:50:22.309Z,101490.94
2023-04-16T11:52:49.929Z,101494.25
2023-04-16T11:55:16.619Z,101486.69
2023-04-16T11:57:43.097Z,101485.97
2023-04-16T12:00:14.162Z,101489.84
2023-04-16T12:02:51.577Z,101489.00
2023-04-16T12:05:41.557Z,101486.97
2023-04-16T12:08:10.503Z,101489.13
2023-04-16T12:10:38.560Z,101485.75
2023-04-16T12:13:16.277Z,101488.31
2023-04-16T12:15:50.190Z,101481.59
2023-04-16T12:18:17.336Z,101485.72
2023-04-16T12:20:44.606Z,101482.91
2023-04-16T12:23:21.995Z,101489.97
2023-04-16T12:25:49.970Z,101489.44
2023-04-16T12:28:29.858Z,101494.63
2023-04-16T12:30:56.484Z,101488.94
2023-04-16T12:33:22.950Z,101494.66
2023-04-16T12:35:49.633Z,101497.91
2023-04-16T12:38:16.816Z,101500.09
2023-04-16T12:40:43.260Z,101494.63
2023-04-16T12:43:10.440Z,101496.47
2023-04-16T12:45:37.927Z,101492.50
2023-04-16T12:48:04.374Z,101503.34
2023-04-16T12:50:30.923Z,101496.38
2023-04-16T12:52:57.698Z,101497.44
2023-04-16T12:55:24.486Z,101500.56
2023-04-16T12:57:52.638Z,101493.25
2023-04-16T13:00:19.971Z,101489.13
2023-04-16T13:02:46.818Z,101488.59
2023-04-16T13:05:16.409Z,101488.34
2023-04-16T13:07:43.066Z,101493.81
2023-04-16T13:10:09.988Z,101486.59
2023-04-16T13:12:36.534Z,101491.88
2023-04-16T13:15:03.037Z,101498.00
2023-04-16T13:17:29.504Z,101493.50
2023-04-16T13:19:55.967Z,101495.63
2023-04-16T13:22:22.540Z,101490.53
2023-04-16T13:24:48.951Z,101496.09
2023-04-16T13:27:16.803Z,101490.28
2023-04-16T13:29:43.202Z,101495.09
2023-04-16T13:32:09.659Z,101486.78
2023-04-16T13:34:36.056Z,101484.28
2023-04-16T13:37:02.461Z,101488.00
2023-04-16T13:39:28.868Z,101494.03
2023-04-16T13:41:55.297Z,101486.22
2023-04-16T13:44:21.773Z,101489.53
2023-04-16T13:46:48.212Z,101487.25
2023-04-16T13:49:14.887Z,101490.56
2023-04-16T13:51:44.597Z,101481.38
2023-04-16T13:54:12.027Z,101493.38
2023-04-16T13:56:38.659Z,101482.03
2023-04-16T13:59:05.095Z,101488.19
2023-04-16T14:01:31.465Z,101486.81
2023-04-16T14:03:59.274Z,101483.41
2023-04-16T14:06:25.878Z,101480.22
2023-04-16T14:08:52.268Z,101475.38
2023-04-16T14:11:18.702Z,101473.25
2023-04-16T14:13:45.073Z,101468.38
2023-04-16T14:16:11.666Z,101475.28
2023-04-16T14:18:42.109Z,101475.41
2023-04-16T14:21:08.896Z,101480.34
2023-04-16T14:23:35.416Z,101475.56
2023-04-16T14:26:01.870Z,101483.09
2023-04-16T14:28:28.261Z,101487.06
2023-04-16T14:30:54.635Z,101483.06
2023-04-16T14:33:21.210Z,101489.97
2023-04-16T14:35:50.169Z,101482.94
2023-04-16T14:38:16.533Z,101480.31
2023-04-16T14:40:42.904Z,101480.31
2023-04-16T14:43:09.270Z,101483.19
2023-04-16T14:45:38.906Z,101473.50
2023-04-16T14:48:06.152Z,101484.09
2023-04-16T14:50:37.842Z,101478.16
2023-04-16T14:53:05.054Z,101489.00
2023-04-16T14:55:32.045Z,101489.06
2023-04-16T14:57:59.523Z,101473.56
2023-04-16T15:00:26.130Z,101478.09
2023-04-16T15:02:53.279Z,101481.16
2023-04-16T15:05:19.773Z,101483.19
2023-04-16T15:07:46.392Z,101476.31
2023-04-16T15:10:13.032Z,101486.88
2023-04-16T15:12:39.592Z,101478.63
2023-04-16T15:15:07.248Z,101484.75
2023-04-16T15:17:33.723Z,101486.75
2023-04-16T15:20:00.591Z,101481.81
2023-04-16T15:22:27.330Z,101484.50
2023-04-16T15:24:54.091Z,101483.41
2023-04-16T15:27:20.615Z,101486.81
2023-04-16T15:29:49.225Z,101479.44
2023-04-16T15:32:15.698Z,101476.09
2023-04-16T15:34:42.121Z,101485.91
2023-04-16T15:37:09.566Z,101483.16
2023-04-16T15:39:35.955Z,101486.47
2023-04-16T15:42:06.604Z,101490.66
2023-04-16T15:44:34.147Z,101501.19
2023-04-16T15:47:00.809Z,101487.50
2023-04-16T15:49:27.253Z,101489.97
2023-04-16T15:51:53.796Z,101495.06
2023-04-16T15:54:20.296Z,101496.31
2023-04-16T15:56:46.919Z,101497.00
2023-04-16T15:59:13.517Z,101487.50
2023-04-16T16:01:40.178Z,101479.75
2023-04-16T16:04:07.944Z,101489.97
2023-04-16T16:06:34.554Z,101483.34
2023-04-16T16:09:01.640Z,101484.56
2023-04-16T16:11:28.098Z,101489.06
2023-04-16T16:13:54.727Z,101480.63
2023-04-16T16:16:21.818Z,101486.31
2023-04-16T16:18:48.642Z,101492.00
2023-04-16T16:21:15.034Z,101481.22
2023-04-16T16:23:41.412Z,101484.00
2023-04-16T16:26:07.812Z,101497.91
2023-04-16T16:28:37.517Z,101490.63
2023-04-16T16:31:07.289Z,101498.78
2023-04-16T16:33:33.724Z,101501.06
2023-04-16T16:36:00.151Z,101497.69
2023-04-16T16:38:26.985Z,101498.34
2023-04-16T16:40:53.377Z,101495.19
2023-04-16T16:43:20.222Z,101499.13
2023-04-16T16:45:47.172Z,101499.69
2023-04-16T16:48:13.579Z,101500.28
2023-04-16T16:50:40.276Z,101503.22
2023-04-16T16:53:06.713Z,101507.16
2023-04-16T16:55:33.192Z,101498.69
2023-04-16T16:57:59.696Z,101507.16
2023-04-16T17:00:26.141Z,101503.78
2023-04-16T17:02:52.871Z,101499.50
2023-04-16T17:05:19.782Z,101510.00
2023-04-16T17:07:46.254Z,101504.97
2023-04-16T17:10:15.828Z,101503.94
2023-04-16T17:12:42.239Z,101507.81
2023-04-16T17:15:09.186Z,101506.22
2023-04-16T17:17:35.810Z,101503.91
2023-04-16T17:20:08.047Z,101506.59
2023-04-16T17:22:34.496Z,101505.38
2023-04-16T17:25:00.969Z,101503.78
2023-04-16T17:27:29.256Z,101503.78
2023-04-16T17:29:59.950Z,101506.94
2023-04-16T17:32:26.666Z,101509.41
2023-04-16T17:34:55.369Z,101510.56
2023-04-16T17:37:22.719Z,101501.06
2023-04-16T17:39:49.427Z,101511.69
2023-04-16T17:42:15.871Z,101515.44
2023-04-16T17:44:42.309Z,101514.56
2023-04-16T17:47:08.704Z,101513.84
2023-04-16T17:49:35.119Z,101518.84
2023-04-16T17:52:01.518Z,101520.00
2023-04-16T17:54:27.991Z,101520.50
2023-04-16T17:56:54.407Z,101519.91
2023-04-16T17:59:20.799Z,101521.66
2023-04-16T18:01:49.367Z,101523.84
2023-04-16T18:04:16.381Z,101523.09
2023-04-16T18:06:43.156Z,101525.66
2023-04-16T18:09:09.534Z,101521.13
2023-04-16T18:11:36.172Z,101521.56
2023-04-16T18:14:02.552Z,101533.09
2023-04-16T18:16:28.983Z,101532.28
2023-04-16T18:18:55.391Z,101539.25
2023-04-16T18:21:21.985Z,101529.94
2023-04-16T18:23:48.364Z,101532.56
2023-04-16T18:26:18.368Z,101535.81
2023-04-16T18:28:47.184Z,101535.16
2023-04-16T18:31:13.797Z,101534.81
2023-04-16T18:33:55.528Z,101538.34
2023-04-16T18:36:23.511Z,101542.34
2023-04-16T18:39:00.071Z,101544.41
2023-04-16T18:41:28.432Z,101546.00
2023-04-16T18:43:54.901Z,101549.69
2023-04-16T18:46:21.382Z,101551.13
2023-04-16T18:48:47.788Z,101556.16
2023-04-16T18:51:16.101Z,101558.13
2023-04-16T18:53:44.168Z,101560.63
2023-04-16T18:56:11.036Z,101557.72
2023-04-16T18:58:37.865Z,101554.25
2023-04-16T19:01:04.857Z,101556.72
2023-04-16T19:03:32.207Z,101556.41
2023-04-16T19:05:58.747Z,101560.03
2023-04-16T19:08:25.249Z,101556.50
2023-04-16T19:10:51.702Z,101563.25
2023-04-16T19:13:18.078Z,101563.94
2023-04-16T19:15:44.478Z,101566.91
2023-04-16T19:18:10.832Z,101567.78
2023-04-16T19:20:37.536Z,101571.59
2023-04-16T19:23:09.173Z,101577.22
2023-04-16T19:25:39.002Z,101582.00
2023-04-16T19:28:05.517Z,101580.03
2023-04-16T19:30:31.966Z,101586.50
2023-04-16T19:32:58.386Z,101577.63
2023-04-16T19:35:25.359Z,101582.66
2023-04-16T19:37:51.735Z,101579.91
2023-04-16T19:40:18.135Z,101595.34
2023-04-16T19:42:45.293Z,101599.41
2023-04-16T19:45:11.851Z,101598.03
2023-04-16T19:47:38.344Z,101605.19
2023-04-16T19:50:05.087Z,101605.94
2023-04-16T19:52:37.153Z,101604.53
2023-04-16T19:55:03.687Z,101606.09
2023-04-16T19:57:30.063Z,101612.06
2023-04-16T19:59:57.017Z,101614.56
2023-04-16T20:02:23.575Z,101614.16
2023-04-16T20:04:50.706Z,101615.44
2023-04-16T20:07:17.418Z,101622.69
2023-04-16T20:09:43.828Z,101622.69
2023-04-16T20:12:10.373Z,101625.00
2023-04-16T20:14:36.840Z,101627.22
2023-04-16T20:17:03.472Z,101631.19
2023-04-16T20:19:33.273Z,101634.56
2023-04-16T20:21:59.637Z,101635.13
2023-04-16T20:24:26.486Z,101637.16
2023-04-16T20:26:52.866Z,101629.53
2023-04-16T20:29:19.328Z,101627.34
2023-04-16T20:31:46.088Z,101628.72
2023-04-16T20:34:12.835Z,101628.06
2023-04-16T20:36:39.253Z,101628.59
2023-04-16T20:39:07.253Z,101627.44
2023-04-16T20:41:33.989Z,101628.06
2023-04-16T20:44:05.292Z,101627.31
2023-04-16T20:46:34.180Z,101623.44
2023-04-16T20:49:03.267Z,101630.97
2023-04-16T20:51:29.675Z,101621.13
2023-04-16T20:53:56.235Z,101624.00
2023-04-16T20:56:22.634Z,101618.56
2023-04-16T20:58:49.032Z,101617.75
2023-04-16T21:01:16.268Z,101620.59
2023-04-16T21:03:42.941Z,101624.78
2023-04-16T21:06:09.428Z,101619.47
2023-04-16T21:08:35.795Z,101629.06
2023-04-16T21:11:02.199Z,101624.63
2023-04-16T21:13:28.576Z,101622.19
2023-04-16T21:15:55.044Z,101627.09
2023-04-16T21:18:21.525Z,101615.72
2023-04-16T21:20:47.940Z,101623.09
2023-04-16T21:23:14.349Z,101620.88
2023-04-16T21:25:40.955Z,101621.38
2023-04-16T21:28:07.354Z,101624.25
2023-04-16T21:30:33.730Z,101618.53
2023-04-16T21:33:00.282Z,101622.81
2023-04-16T21:35:26.696Z,101617.75
2023-04-16T21:37:53.144Z,101621.13
2023-04-16T21:40:19.592Z,101620.59
2023-04-16T21:42:45.965Z,101624.53
2023-04-16T21:45:14.361Z,101619.72
2023-04-16T21:47:40.792Z,101617.25
2023-04-16T21:50:07.805Z,101620.47
2023-04-16T21:52:40.025Z,101622.69
2023-04-16T21:55:08.010Z,101614.41
2023-04-16T21:57:34.385Z,101616.72
2023-04-16T22:00:00.868Z,101619.84
2023-04-16T22:02:27.451Z,101621.66
2023-04-16T22:04:54.075Z,101620.88
2023-04-16T22:07:20.626Z,101617.25
2023-04-16T22:09:47.074Z,101621.03
2023-04-16T22:12:13.799Z,101620.63
2023-04-16T22:14:46.300Z,101617.38
2023-04-16T22:17:22.141Z,101625.16
2023-04-16T22:19:49.241Z,101622.91
2023-04-16T22:22:15.684Z,101636.06
2023-04-16T22:24:42.312Z,101623.78
2023-04-16T22:27:08.730Z,101619.41
2023-04-16T22:29:35.255Z,101623.16
2023-04-16T22:32:01.963Z,101627.44
2023-04-16T22:34:28.383Z,101624.69
2023-04-16T22:36:54.772Z,101631.44
2023-04-16T22:39:21.401Z,101629.91
2023-04-16T22:41:47.794Z,101629.84
2023-04-16T22:44:14.192Z,101633.94
2023-04-16T22:46:40.762Z,101636.56
2023-04-16T22:49:07.147Z,101638.50
2023-04-16T22:51:34.092Z,101635.84
2023-04-16T22:54:00.542Z,101635.09
2023-04-16T22:56:28.808Z,101637.88
2023-04-16T22:58:55.395Z,101644.25
2023-04-16T23:01:21.844Z,101651.88
2023-04-16T23:03:48.392Z,101646.97
2023-04-16T23:06:14.878Z,101646.94
2023-04-16T23:08:41.262Z,101652.13
2023-04-16T23:11:07.684Z,101649.78
2023-04-16T23:13:34.046Z,101653.34
2023-04-16T23:16:00.523Z,101649.03
2023-04-16T23:18:27.034Z,101652.28
2023-04-16T23:20:53.514Z,101656.28
2023-04-16T23:23:19.961Z,101652.97
2023-04-16T23:25:46.348Z,101658.66
2023-04-16T23:28:12.733Z,101658.28
2023-04-16T23:30:39.194Z,101653.66
2023-04-16T23:33:05.608Z,101652.03
2023-04-16T23:35:32.096Z,101652.06
2023-04-16T23:37:58.557Z,101652.47
2023-04-16T23:40:24.925Z,101651.84
2023-04-16T23:42:51.288Z,101653.38
2023-04-16T23:45:17.768Z,101660.09
2023-04-16T23:47:44.641Z,101656.66
2023-04-16T23:50:11.336Z,101655.94
2023-04-16T23:52:37.712Z,101654.34
2023-04-16T23:55:04.367Z,101653.88
2023-04-16T23:57:30.887Z,101656.50
2023-04-16T23:59:57.282Z,101656.22
